Accueil
METAR-TAF:

METAR-TAF

Aéroports :

Iran Shahr, Iran

latitude: 27-12N, longitude: 060-42E, altitude: 591 m

Observation

Le bulletin a été fait il y a 29 minutes, à 19:00 UTC
Vent calme
Température 39°C
Humidité 33%
Pression 1000 hPa
Visibilité: 8000 m

METAR: OIZI 221900Z 00000KT 8000 NSC 39/20 Q1000

Heure: 23:59 (19:29 UTC)


TAF: absent

Observations et prévisions météorologiques de plus de 4000 aéroports (messages METAR et TAF).

Les stations disponibles sont représentées par des disques jaunes et rouges sur la carte.

Passer la souris dessus pour voir le nom de la station.

Cliquer dessus pour voir les observations et prévisions météorologiques.

Pour changer de carte: cliquez sur les boutons verts avec une croix noire pour zoomer, sur le bouton vert avec un tiret pour effectuer un zoom arrière, ou sur les flèches vertes pour les cartes adjacentes.


METAR-TAF: